YKYB weather

Kyabram Airport
Private Airfield in the Shire of Campaspe, Victoria, Australia

Public forecast

Using degrees Celsius for public forecast. Weather courtesy of forecast.io.

Closest aviation weather report (METAR) to Kyabram Airport

Closest report is Wangaratta Airport, 64.7 nm (119.9 km) E. Retrieved 2020/01/18 05:00 UTC (21 minutes ago):

YWGT 180500Z AUTO 01009KT 290V040 9999 // SCT080 32/06 Q1004

Closest aviation forecast (TAF) to Kyabram Airport

Closest forecast is Wangaratta Airport, 64.7 nm (119.9 km) E. Retrieved 2020-01-18 02:33 UTC (3 hours ago):

TAF TAF YWGT 180130Z 1802/1814 02010KT 9999 FU NSC PROB30 1802/1814 4000 FU PROB30 INTER 1803/1812 VRB25G40KT 3000 TSRA FEW060CB